Time;durP1;ratioP1;P1;durP2;ratioP2;P2;SDS_P1;SDS_P2;PMS_P1;PMS_P2;Temp;Humidity;BMP_temperature;BMP_pressure;BME280_temperature;BME280_humidity;BME280_pressure;Samples;Min_cycle;Max_cycle;Signal;HPM_P1;HPM_P2
2021/12/14 00:00:53;;;;;;;14.50;7.27;;;8.70;88.60;;;;;;5021508;28;20545;-68
2021/12/14 00:03:26;;;;;;;12.17;7.40;;;8.70;88.50;;;;;;5021685;28;20543;-68
2021/12/14 00:05:54;;;;;;;14.98;7.32;;;8.70;88.50;;;;;;5018920;28;20540;-68
2021/12/14 00:08:25;;;;;;;13.93;7.50;;;8.70;88.40;;;;;;5021620;28;20237;-68
2021/12/14 00:11:26;;;;;;;14.40;7.20;;;8.60;88.50;;;;;;5025604;28;20477;-68
2021/12/14 00:14:00;;;;;;;13.52;7.22;;;8.60;88.60;;;;;;5025508;28;20196;-68
2021/12/14 00:16:28;;;;;;;14.93;8.27;;;8.60;88.60;;;;;;5023273;28;20920;-68
2021/12/14 00:19:01;;;;;;;12.40;7.33;;;8.60;88.60;;;;;;5020754;28;20926;-68
2021/12/14 00:21:31;;;;;;;16.57;8.20;;;8.70;88.60;;;;;;5020281;28;20536;-68
2021/12/14 00:24:10;;;;;;;17.63;9.60;;;8.70;88.60;;;;;;5021196;28;20491;-68
2021/12/14 00:26:42;;;;;;;13.93;8.05;;;8.70;88.50;;;;;;5021933;28;20562;-68
2021/12/14 00:29:15;;;;;;;15.60;8.35;;;8.70;88.60;;;;;;5017281;28;20253;-68
2021/12/14 00:31:44;;;;;;;16.53;8.00;;;8.60;88.50;;;;;;5027485;28;20236;-70
2021/12/14 00:34:21;;;;;;;16.73;7.77;;;8.60;88.50;;;;;;5020546;28;20459;-70
2021/12/14 00:36:50;;;;;;;14.88;8.15;;;8.70;88.60;;;;;;5025412;28;20465;-70
2021/12/14 00:39:19;;;;;;;14.88;7.35;;;8.70;88.50;;;;;;5023493;28;20262;-70
2021/12/14 00:41:47;;;;;;;12.27;6.57;;;8.70;88.50;;;;;;5024115;28;20227;-69
2021/12/14 00:44:15;;;;;;;11.07;6.43;;;8.70;88.50;;;;;;5022326;28;21007;-70
2021/12/14 00:46:44;;;;;;;12.60;7.25;;;8.70;88.50;;;;;;5020887;28;20530;-70
2021/12/14 00:49:14;;;;;;;13.70;7.15;;;8.70;88.50;;;;;;5020762;28;20256;-69
2021/12/14 00:51:42;;;;;;;13.82;7.45;;;8.70;88.50;;;;;;5034762;28;20193;-69
2021/12/14 00:54:13;;;;;;;12.73;7.20;;;8.70;88.50;;;;;;5019533;28;20215;-69
2021/12/14 00:56:47;;;;;;;12.30;6.40;;;8.70;88.50;;;;;;5021202;28;20473;-70
2021/12/14 00:59:20;;;;;;;14.50;6.80;;;8.70;88.40;;;;;;5027993;28;20497;-70
2021/12/14 01:01:54;;;;;;;10.98;6.97;;;8.70;88.40;;;;;;5015525;28;20496;-69
2021/12/14 01:04:27;;;;;;;13.40;7.20;;;8.70;88.40;;;;;;5013511;28;20212;-69
2021/12/14 01:06:56;;;;;;;13.93;7.65;;;8.70;88.40;;;;;;5023090;28;20475;-69
2021/12/14 01:09:32;;;;;;;11.85;7.20;;;8.70;88.30;;;;;;5018694;28;20239;-69
2021/12/14 01:12:07;;;;;;;14.10;7.07;;;8.70;88.30;;;;;;5036381;28;20904;-69
2021/12/14 01:14:42;;;;;;;12.68;6.50;;;8.70;88.40;;;;;;5024868;28;20680;-69
2021/12/14 01:17:26;;;;;;;14.15;6.90;;;8.70;88.40;;;;;;5024862;28;20323;-70
2021/12/14 01:19:59;;;;;;;15.48;7.72;;;8.70;88.40;;;;;;5022743;28;20882;-69
2021/12/14 01:22:39;;;;;;;12.20;6.80;;;8.70;88.40;;;;;;5024380;28;20208;-69
2021/12/14 01:25:14;;;;;;;14.52;6.22;;;8.70;88.30;;;;;;5016483;28;20469;-70
2021/12/14 01:27:48;;;;;;;13.82;7.28;;;8.70;88.30;;;;;;5019098;28;20265;-70
2021/12/14 01:30:27;;;;;;;14.05;7.20;;;8.70;88.30;;;;;;5019025;28;20231;-69
2021/12/14 01:33:00;;;;;;;14.35;6.60;;;8.70;88.30;;;;;;5022483;28;20215;-69
2021/12/14 01:35:32;;;;;;;12.80;7.32;;;8.70;88.30;;;;;;5032653;28;20196;-69
2021/12/14 01:38:15;;;;;;;14.40;6.90;;;8.70;88.30;;;;;;5017249;28;20227;-70
2021/12/14 01:40:57;;;;;;;13.60;7.10;;;8.60;88.20;;;;;;5027916;28;20520;-70
2021/12/14 01:43:40;;;;;;;14.02;6.72;;;8.60;88.30;;;;;;5035525;28;20212;-69
2021/12/14 01:46:23;;;;;;;13.95;7.20;;;8.60;88.30;;;;;;5027799;28;20254;-69
2021/12/14 01:48:57;;;;;;;14.18;7.80;;;8.60;88.30;;;;;;5021771;28;20223;-69
2021/12/14 01:51:38;;;;;;;15.95;8.52;;;8.60;88.30;;;;;;5016836;28;20204;-69
2021/12/14 01:54:19;;;;;;;16.58;8.70;;;8.60;88.20;;;;;;5022814;28;20215;-69
2021/12/14 01:56:47;;;;;;;14.88;7.97;;;8.60;88.20;;;;;;5037706;28;20199;-69
2021/12/14 01:59:22;;;;;;;17.70;8.88;;;8.60;88.20;;;;;;5016704;28;20254;-69
2021/12/14 02:01:57;;;;;;;15.23;7.85;;;8.60;88.20;;;;;;5019101;28;20237;-70
2021/12/14 02:04:28;;;;;;;16.23;9.02;;;8.60;88.20;;;;;;5020432;28;20583;-70
2021/12/14 02:07:00;;;;;;;18.02;8.68;;;8.60;88.20;;;;;;5033100;28;20251;-69
2021/12/14 02:09:31;;;;;;;16.95;7.40;;;8.60;88.20;;;;;;5019699;28;20224;-69
2021/12/14 02:12:01;;;;;;;15.38;7.05;;;8.60;88.20;;;;;;5023612;28;20675;-69
2021/12/14 02:14:33;;;;;;;14.98;7.20;;;8.60;88.20;;;;;;5022787;28;20204;-69
2021/12/14 02:17:06;;;;;;;18.52;9.38;;;8.60;88.20;;;;;;5032591;28;20235;-69
2021/12/14 02:19:35;;;;;;;17.08;9.23;;;8.60;88.20;;;;;;5020598;28;20327;-69
2021/12/14 02:22:08;;;;;;;16.27;8.23;;;8.60;88.20;;;;;;5021502;28;20208;-69
2021/12/14 02:24:38;;;;;;;18.77;8.80;;;8.60;88.20;;;;;;5018666;28;20259;-69
2021/12/14 02:27:07;;;;;;;16.13;7.85;;;8.60;88.20;;;;;;5023409;28;20621;-69
2021/12/14 02:29:39;;;;;;;12.90;7.00;;;8.60;88.10;;;;;;5018546;28;20219;-70
2021/12/14 02:32:11;;;;;;;11.80;5.88;;;8.60;88.10;;;;;;5023766;28;20296;-69
2021/12/14 02:34:42;;;;;;;9.60;4.78;;;8.60;88.10;;;;;;5022913;28;20274;-69
2021/12/14 02:37:13;;;;;;;10.40;5.50;;;8.60;88.10;;;;;;5032346;28;20212;-69
2021/12/14 02:40:00;;;;;;;13.02;5.70;;;8.60;88.10;;;;;;5015950;28;20233;-69
2021/12/14 02:42:32;;;;;;;15.73;6.95;;;8.60;88.00;;;;;;5034238;28;20300;-69
2021/12/14 02:45:01;;;;;;;10.75;5.32;;;8.50;88.00;;;;;;5026043;28;20620;-70
2021/12/14 02:47:29;;;;;;;9.75;4.78;;;8.50;88.00;;;;;;5026358;28;20240;-69
2021/12/14 02:49:57;;;;;;;7.82;4.68;;;8.50;88.00;;;;;;5027051;28;20277;-69
2021/12/14 02:52:33;;;;;;;6.05;3.90;;;8.50;87.90;;;;;;5030920;28;20210;-69
2021/12/14 02:55:06;;;;;;;5.53;3.20;;;8.50;88.00;;;;;;5039395;28;20673;-68
2021/12/14 02:57:37;;;;;;;6.28;3.10;;;8.40;88.00;;;;;;5023068;28;20250;-68
2021/12/14 03:00:11;;;;;;;6.80;3.50;;;8.40;88.00;;;;;;5028014;28;20237;-68
2021/12/14 03:02:39;;;;;;;5.70;3.10;;;8.40;88.10;;;;;;5022043;28;20699;-68
2021/12/14 03:05:11;;;;;;;4.85;3.00;;;8.40;88.00;;;;;;5039888;28;20210;-68
2021/12/14 03:07:45;;;;;;;6.93;3.53;;;8.40;88.00;;;;;;5030727;28;20660;-68
2021/12/14 03:10:33;;;;;;;6.65;3.60;;;8.40;88.10;;;;;;5022175;28;20238;-68
2021/12/14 03:13:06;;;;;;;5.57;3.03;;;8.40;88.00;;;;;;5021762;28;20209;-68
2021/12/14 03:15:42;;;;;;;4.80;2.42;;;8.40;88.00;;;;;;5022127;28;20241;-68
2021/12/14 03:18:14;;;;;;;4.70;2.45;;;8.40;88.00;;;;;;5031212;28;20660;-68
2021/12/14 03:20:45;;;;;;;5.85;2.30;;;8.40;87.90;;;;;;5029078;28;20199;-68
2021/12/14 03:23:18;;;;;;;5.97;3.00;;;8.30;88.00;;;;;;5024421;28;20200;-69
2021/12/14 03:25:48;;;;;;;5.68;2.50;;;8.30;88.10;;;;;;5026059;28;20216;-69
2021/12/14 03:28:19;;;;;;;5.60;2.83;;;8.30;88.10;;;;;;5022121;28;20330;-69
2021/12/14 03:31:00;;;;;;;5.28;2.88;;;8.30;88.10;;;;;;5019595;28;20238;-70
2021/12/14 03:33:33;;;;;;;5.15;3.00;;;8.30;88.10;;;;;;5020273;28;20569;-69
2021/12/14 03:36:05;;;;;;;6.55;2.90;;;8.30;88.10;;;;;;5022863;28;20208;-69
2021/12/14 03:38:40;;;;;;;6.93;3.50;;;8.30;88.20;;;;;;5017911;28;21836;-68
2021/12/14 03:41:12;;;;;;;5.90;3.63;;;8.30;88.20;;;;;;5020877;28;20237;-68
2021/12/14 03:43:43;;;;;;;6.85;3.22;;;8.40;88.10;;;;;;5027856;28;20209;-68
2021/12/14 03:46:15;;;;;;;5.07;2.95;;;8.40;88.10;;;;;;5034102;28;20723;-68
2021/12/14 03:48:43;;;;;;;4.70;2.58;;;8.40;88.00;;;;;;5019481;28;20230;-70
2021/12/14 03:51:12;;;;;;;6.13;3.30;;;8.40;88.00;;;;;;5021553;28;20255;-69
2021/12/14 03:53:43;;;;;;;6.50;2.97;;;8.40;87.90;;;;;;5022962;28;20203;-69
2021/12/14 03:56:11;;;;;;;5.72;2.70;;;8.40;87.90;;;;;;5023365;28;20222;-70
2021/12/14 03:58:42;;;;;;;6.07;3.40;;;8.50;87.90;;;;;;5022370;28;20251;-69
2021/12/14 04:01:14;;;;;;;5.55;3.28;;;8.40;87.80;;;;;;5032536;28;20234;-69
2021/12/14 04:03:52;;;;;;;6.90;3.47;;;8.40;87.90;;;;;;5018497;28;20950;-69
2021/12/14 04:06:25;;;;;;;5.13;3.00;;;8.40;87.90;;;;;;5026428;28;20841;-70
2021/12/14 04:08:54;;;;;;;6.70;3.72;;;8.40;87.90;;;;;;5019552;28;20242;-70
2021/12/14 04:11:23;;;;;;;5.78;3.50;;;8.40;87.90;;;;;;5027721;28;20219;-69
2021/12/14 04:13:53;;;;;;;7.57;4.18;;;8.40;87.80;;;;;;5020874;28;20199;-68
2021/12/14 04:16:35;;;;;;;20.95;8.80;;;8.40;87.80;;;;;;5025966;28;20247;-68
2021/12/14 04:19:05;;;;;;;14.90;7.55;;;8.40;87.80;;;;;;5026921;28;21023;-68
2021/12/14 04:21:35;;;;;;;23.13;11.82;;;8.40;87.70;;;;;;5022343;28;20274;-68
2021/12/14 04:24:06;;;;;;;41.63;17.10;;;8.40;87.80;;;;;;5025623;28;20215;-68
2021/12/14 04:26:35;;;;;;;29.17;11.85;;;8.40;87.80;;;;;;5021092;28;20971;-68
2021/12/14 04:29:05;;;;;;;33.83;15.27;;;8.40;87.80;;;;;;5025260;28;20239;-68
2021/12/14 04:31:35;;;;;;;13.32;7.25;;;8.40;87.80;;;;;;5017228;28;20232;-68
2021/12/14 04:34:05;;;;;;;9.20;5.80;;;8.40;87.80;;;;;;5029783;28;20223;-68
2021/12/14 04:36:34;;;;;;;7.85;4.85;;;8.40;87.80;;;;;;5023991;28;20590;-68
2021/12/14 04:39:29;;;;;;;8.75;5.30;;;8.40;87.70;;;;;;5027305;28;20239;-68
2021/12/14 04:53:31;;;;;;;8.05;5.25;;;8.40;87.70;;;;;;5022685;28;20203;-68
2021/12/14 04:56:01;;;;;;;8.40;5.50;;;8.40;87.70;;;;;;5035244;28;20302;-68
2021/12/14 04:58:32;;;;;;;9.82;5.78;;;8.40;87.70;;;;;;5043727;28;20688;-68
2021/12/14 05:01:04;;;;;;;9.13;5.43;;;8.40;87.70;;;;;;5027033;28;20239;-68
2021/12/14 05:03:36;;;;;;;8.15;5.03;;;8.40;87.70;;;;;;5024237;28;20295;-68
2021/12/14 05:06:14;;;;;;;9.25;5.85;;;8.40;87.70;;;;;;5022289;28;20210;-68
2021/12/14 05:11:32;;;;;;;9.45;5.80;;;8.40;87.70;;;;;;5028419;28;20686;-67
2021/12/14 05:14:06;;;;;;;11.07;5.53;;;8.40;87.60;;;;;;5031452;28;20212;-68
2021/12/14 05:16:42;;;;;;;8.98;6.15;;;8.30;87.80;;;;;;5018204;28;20314;-68
2021/12/14 05:19:31;;;;;;;12.90;6.25;;;8.30;87.80;;;;;;5030428;28;20216;-68
2021/12/14 05:22:04;;;;;;;9.35;6.00;;;8.40;87.70;;;;;;5016912;28;20303;-68
2021/12/14 05:24:39;;;;;;;9.25;6.07;;;8.40;87.70;;;;;;5019902;28;20223;-68
2021/12/14 05:27:11;;;;;;;9.38;6.35;;;8.40;87.60;;;;;;5029522;28;20211;-68
2021/12/14 05:29:42;;;;;;;15.82;8.50;;;8.40;87.60;;;;;;5017697;28;20235;-68
2021/12/14 05:32:15;;;;;;;17.88;9.95;;;8.40;87.60;;;;;;5024120;28;20234;-68
2021/12/14 05:34:46;;;;;;;14.55;7.55;;;8.40;87.60;;;;;;5017525;28;20686;-68
2021/12/14 05:37:19;;;;;;;14.13;8.85;;;8.40;87.60;;;;;;5021773;28;20686;-69
2021/12/14 05:39:53;;;;;;;12.35;7.65;;;8.40;87.60;;;;;;5019639;28;20223;-69
2021/12/14 05:45:33;;;;;;;11.25;7.03;;;8.40;87.40;;;;;;5019224;28;20281;-69
2021/12/14 05:48:01;;;;;;;11.18;7.10;;;8.30;87.60;;;;;;5026108;28;20205;-69
2021/12/14 05:50:39;;;;;;;11.02;7.13;;;8.30;87.50;;;;;;5026742;28;20318;-69
2021/12/14 05:53:09;;;;;;;12.10;7.70;;;8.30;87.50;;;;;;5026744;28;20208;-69
2021/12/14 05:55:40;;;;;;;11.25;8.00;;;8.30;87.70;;;;;;5024439;28;20219;-70
2021/12/14 05:58:15;;;;;;;12.70;8.90;;;8.30;87.70;;;;;;5023207;28;20210;-69
2021/12/14 06:00:46;;;;;;;13.43;8.98;;;8.30;87.60;;;;;;5037449;28;20287;-70
2021/12/14 06:03:19;;;;;;;14.50;9.32;;;8.30;87.50;;;;;;5020804;28;20207;-68
2021/12/14 06:05:48;;;;;;;18.15;10.70;;;8.30;87.50;;;;;;5021254;28;20828;-68
2021/12/14 06:08:25;;;;;;;15.60;10.05;;;8.30;87.50;;;;;;5019542;28;20669;-68
2021/12/14 06:10:59;;;;;;;18.42;10.90;;;8.30;87.40;;;;;;5017786;28;20303;-68
2021/12/14 06:13:39;;;;;;;19.42;11.75;;;8.20;87.50;;;;;;5019596;28;20563;-68
2021/12/14 06:16:08;;;;;;;21.77;12.93;;;8.20;87.50;;;;;;5014620;28;20226;-69
2021/12/14 06:18:37;;;;;;;25.88;14.93;;;8.20;87.50;;;;;;5022405;28;20239;-69
2021/12/14 06:21:31;;;;;;;24.90;14.27;;;8.20;87.50;;;;;;5019896;28;20209;-69
2021/12/14 06:24:03;;;;;;;23.73;14.13;;;8.20;87.60;;;;;;5039826;28;20932;-69
2021/12/14 06:26:44;;;;;;;27.13;16.52;;;8.10;87.50;;;;;;5037951;28;20291;-69
2021/12/14 06:29:20;;;;;;;24.92;13.35;;;8.10;87.60;;;;;;5020933;28;20243;-69
2021/12/14 06:31:48;;;;;;;20.73;13.23;;;8.10;87.60;;;;;;5038715;28;20235;-69
2021/12/14 06:34:21;;;;;;;21.52;12.50;;;8.10;87.70;;;;;;5025608;28;20207;-68
2021/12/14 06:38:09;;;;;;;18.25;11.32;;;8.20;87.70;;;;;;5021234;28;20608;-68
2021/12/14 06:40:42;;;;;;;20.70;12.23;;;8.20;87.70;;;;;;5027110;28;20786;-68
2021/12/14 06:43:13;;;;;;;22.42;13.43;;;8.20;87.60;;;;;;5026757;28;20610;-68
2021/12/14 06:45:46;;;;;;;20.58;12.98;;;8.20;87.60;;;;;;5022079;28;20909;-68
2021/12/14 06:48:20;;;;;;;23.07;12.30;;;8.20;87.70;;;;;;5022486;28;20211;-68
2021/12/14 06:50:51;;;;;;;23.27;12.52;;;8.20;87.70;;;;;;5021795;28;20487;-69
2021/12/14 06:53:35;;;;;;;22.40;13.48;;;8.20;87.60;;;;;;5021206;28;20230;-68
2021/12/14 06:56:25;;;;;;;24.00;13.10;;;8.20;87.60;;;;;;5025267;28;20711;-68
2021/12/14 06:59:16;;;;;;;25.25;14.25;;;8.20;87.60;;;;;;5006415;28;21069;-67
2021/12/14 07:02:09;;;;;;;23.00;14.20;;;8.20;87.70;;;;;;5026061;28;20232;-68
2021/12/14 07:04:51;;;;;;;22.17;13.15;;;8.20;87.70;;;;;;5023215;28;20751;-68
2021/12/14 07:07:23;;;;;;;21.15;12.82;;;8.20;87.70;;;;;;5025692;28;20219;-68
2021/12/14 07:09:55;;;;;;;20.55;13.15;;;8.20;87.70;;;;;;5025223;28;20223;-68
2021/12/14 07:12:27;;;;;;;24.60;13.32;;;8.20;87.70;;;;;;5022165;28;20203;-69
2021/12/14 07:15:10;;;;;;;24.58;13.98;;;8.20;87.70;;;;;;5019777;28;20193;-69
2021/12/14 07:17:44;;;;;;;22.05;13.18;;;8.30;87.70;;;;;;5022895;28;20227;-69
2021/12/14 07:20:23;;;;;;;39.78;22.88;;;8.30;87.60;;;;;;5023737;28;20229;-69
2021/12/14 07:22:53;;;;;;;27.92;15.93;;;8.30;87.60;;;;;;5020449;28;20220;-69
2021/12/14 07:25:25;;;;;;;24.00;13.40;;;8.30;87.60;;;;;;5022209;28;20637;-69
2021/12/14 07:27:54;;;;;;;27.42;14.40;;;8.30;87.60;;;;;;5028009;28;20216;-68
2021/12/14 07:30:25;;;;;;;22.10;12.82;;;8.20;87.50;;;;;;5023684;28;20865;-69
2021/12/14 07:32:59;;;;;;;25.08;14.25;;;8.20;87.50;;;;;;5023771;28;20249;-70
2021/12/14 07:35:40;;;;;;;23.80;13.00;;;8.20;87.50;;;;;;5027337;28;20218;-69
2021/12/14 07:38:22;;;;;;;27.13;14.18;;;8.20;87.60;;;;;;5028113;28;20810;-69
2021/12/14 07:40:55;;;;;;;26.75;14.30;;;8.20;87.60;;;;;;5027556;28;20195;-70
2021/12/14 07:43:26;;;;;;;25.95;14.32;;;8.20;87.70;;;;;;5025682;28;20715;-70
2021/12/14 07:45:55;;;;;;;27.23;15.07;;;8.20;87.80;;;;;;5020298;28;20311;-70
2021/12/14 07:48:42;;;;;;;21.75;11.90;;;8.20;87.70;;;;;;5026655;28;20259;-70
2021/12/14 07:51:11;;;;;;;21.07;12.17;;;8.20;87.70;;;;;;5024597;28;20214;-69
2021/12/14 07:53:41;;;;;;;21.02;12.63;;;8.20;87.80;;;;;;5020858;28;20455;-70
2021/12/14 07:56:21;;;;;;;21.93;11.70;;;8.30;87.70;;;;;;5022735;28;20208;-70
2021/12/14 07:58:49;;;;;;;18.67;10.00;;;8.30;87.80;;;;;;5029890;28;20485;-69
2021/12/14 08:01:18;;;;;;;22.00;11.20;;;8.30;87.80;;;;;;5025837;28;20242;-70
2021/12/14 08:03:48;;;;;;;21.38;10.77;;;8.30;87.70;;;;;;5020639;28;20297;-71
2021/12/14 08:06:16;;;;;;;21.38;11.57;;;8.30;87.60;;;;;;5023017;28;20251;-69
2021/12/14 08:08:45;;;;;;;19.35;11.27;;;8.30;87.70;;;;;;5019369;28;20233;-70
2021/12/14 08:11:46;;;;;;;20.45;11.55;;;8.30;87.60;;;;;;5021331;28;20258;-71
2021/12/14 08:14:22;;;;;;;19.58;11.27;;;8.30;87.70;;;;;;5019946;28;20211;-71
2021/12/14 08:16:54;;;;;;;19.17;10.68;;;8.30;87.80;;;;;;5023038;28;20234;-71
2021/12/14 08:19:31;;;;;;;22.55;11.05;;;8.30;87.70;;;;;;5021938;28;20282;-70
2021/12/14 08:22:04;;;;;;;20.98;10.15;;;8.30;87.70;;;;;;5038698;28;20209;-71
2021/12/14 08:24:32;;;;;;;21.88;11.13;;;8.30;87.70;;;;;;5019918;28;20267;-70
2021/12/14 08:27:07;;;;;;;23.00;10.75;;;8.30;87.60;;;;;;5024301;28;20690;-71
2021/12/14 08:29:37;;;;;;;25.27;12.13;;;8.30;87.60;;;;;;5020077;28;20219;-70
2021/12/14 08:32:10;;;;;;;20.00;10.80;;;8.30;87.70;;;;;;5021427;28;20226;-71
2021/12/14 08:34:42;;;;;;;24.38;11.77;;;8.30;87.70;;;;;;5019146;28;20979;-70
2021/12/14 08:37:31;;;;;;;23.67;11.90;;;8.30;87.70;;;;;;5023016;28;20704;-70
2021/12/14 08:40:04;;;;;;;28.25;15.52;;;8.30;87.80;;;;;;5017766;28;20218;-70
2021/12/14 08:42:39;;;;;;;32.10;14.30;;;8.30;87.80;;;;;;5020925;28;20203;-70
2021/12/14 08:45:25;;;;;;;27.20;12.73;;;8.30;87.90;;;;;;5023355;28;20201;-70
2021/12/14 08:47:58;;;;;;;26.75;14.25;;;8.40;87.80;;;;;;5020329;28;20207;-71
2021/12/14 08:50:28;;;;;;;26.27;13.70;;;8.40;87.90;;;;;;5029577;28;20230;-70
2021/12/14 08:52:56;;;;;;;28.33;13.45;;;8.40;87.80;;;;;;5029498;28;20215;-70
2021/12/14 08:55:31;;;;;;;25.67;12.60;;;8.40;87.80;;;;;;5027940;28;20226;-70
2021/12/14 08:57:59;;;;;;;33.00;15.27;;;8.40;87.70;;;;;;5033409;28;20210;-71
2021/12/14 09:00:32;;;;;;;22.83;12.73;;;8.40;87.80;;;;;;5025188;28;20497;-70
2021/12/14 09:03:03;;;;;;;31.27;13.80;;;8.40;87.80;;;;;;5019267;28;20608;-70
2021/12/14 09:05:35;;;;;;;24.58;12.45;;;8.40;87.80;;;;;;5017417;28;20211;-71
2021/12/14 09:08:04;;;;;;;28.50;12.25;;;8.40;87.80;;;;;;5021519;28;20195;-71
2021/12/14 09:10:34;;;;;;;28.17;12.85;;;8.40;87.80;;;;;;5019824;28;20281;-70
2021/12/14 09:13:07;;;;;;;23.27;12.32;;;8.40;87.80;;;;;;5020615;28;20216;-70
2021/12/14 09:15:38;;;;;;;25.38;12.10;;;8.40;87.80;;;;;;5023978;28;20244;-70
2021/12/14 09:18:07;;;;;;;29.60;13.00;;;8.40;87.90;;;;;;5025861;28;20952;-70
2021/12/14 09:20:42;;;;;;;27.65;13.52;;;8.40;87.90;;;;;;5025492;28;20230;-71
2021/12/14 09:23:15;;;;;;;25.88;13.95;;;8.50;87.90;;;;;;5024386;28;20194;-70
2021/12/14 09:25:44;;;;;;;20.75;11.13;;;8.50;87.90;;;;;;5025523;28;20196;-70
2021/12/14 09:28:12;;;;;;;22.15;11.82;;;8.50;87.80;;;;;;5019102;28;20213;-70
2021/12/14 09:30:45;;;;;;;17.58;10.70;;;8.50;87.80;;;;;;5022264;28;20329;-70
2021/12/14 09:33:16;;;;;;;18.45;9.15;;;8.50;87.90;;;;;;5025154;28;20260;-70
2021/12/14 09:35:47;;;;;;;20.45;11.43;;;8.50;88.10;;;;;;5023222;28;20206;-70
2021/12/14 09:38:18;;;;;;;27.60;12.73;;;8.60;88.20;;;;;;5019479;28;20291;-71
2021/12/14 09:40:50;;;;;;;21.13;11.60;;;8.60;88.10;;;;;;5023860;28;20254;-70
2021/12/14 09:43:18;;;;;;;23.48;11.95;;;8.70;88.00;;;;;;5024452;28;20192;-71
2021/12/14 09:45:50;;;;;;;25.10;11.90;;;8.70;87.90;;;;;;5019006;28;20285;-70
2021/12/14 09:48:22;;;;;;;27.15;12.88;;;8.70;87.90;;;;;;5024038;28;20677;-70
2021/12/14 09:50:53;;;;;;;27.13;13.05;;;8.70;87.90;;;;;;5021544;28;20282;-70
2021/12/14 09:53:25;;;;;;;20.90;11.90;;;8.60;87.80;;;;;;5023360;28;20208;-70
2021/12/14 09:55:56;;;;;;;23.42;12.25;;;8.60;87.90;;;;;;5025338;28;20207;-70
2021/12/14 09:58:29;;;;;;;24.35;12.23;;;8.60;87.90;;;;;;5021984;28;20200;-70
2021/12/14 10:01:03;;;;;;;24.27;11.93;;;8.70;87.80;;;;;;5022348;28;20255;-70
2021/12/14 10:03:31;;;;;;;25.38;11.77;;;8.70;87.90;;;;;;5021761;28;20451;-70
2021/12/14 10:06:05;;;;;;;22.60;13.13;;;8.70;87.90;;;;;;5017983;28;20200;-70
2021/12/14 10:08:37;;;;;;;23.52;11.50;;;8.60;87.90;;;;;;5022275;28;20214;-70
2021/12/14 10:11:11;;;;;;;21.30;11.65;;;8.60;87.90;;;;;;5023470;28;20582;-70
2021/12/14 10:13:43;;;;;;;24.73;12.65;;;8.60;87.80;;;;;;5029843;28;20541;-70
2021/12/14 10:16:12;;;;;;;24.97;12.30;;;8.70;87.90;;;;;;5041069;28;20235;-70
2021/12/14 10:18:43;;;;;;;27.50;12.43;;;8.60;87.90;;;;;;5021113;28;20479;-70
2021/12/14 10:21:17;;;;;;;26.25;12.57;;;8.70;88.00;;;;;;5025112;28;20787;-70
2021/12/14 10:23:46;;;;;;;23.58;12.07;;;8.70;88.00;;;;;;5021109;28;20209;-70
2021/12/14 10:26:16;;;;;;;25.23;13.30;;;8.70;87.90;;;;;;5020365;28;20212;-70
2021/12/14 10:28:47;;;;;;;22.30;11.98;;;8.70;87.90;;;;;;5016706;28;20220;-71
2021/12/14 10:31:25;;;;;;;24.08;13.32;;;8.70;87.90;;;;;;5023616;28;20330;-71
2021/12/14 10:33:57;;;;;;;20.52;12.25;;;8.70;87.80;;;;;;5021765;28;20262;-72
2021/12/14 10:36:35;;;;;;;23.53;12.73;;;8.70;87.90;;;;;;5018747;28;20207;-71
2021/12/14 10:39:23;;;;;;;23.17;12.10;;;8.70;87.80;;;;;;5022911;28;20491;-72
2021/12/14 10:44:43;;;;;;;24.00;12.98;;;8.70;87.80;;;;;;5020652;28;20204;-71
2021/12/14 10:47:13;;;;;;;24.65;13.77;;;8.70;87.80;;;;;;5020777;28;20244;-70
2021/12/14 10:49:42;;;;;;;30.60;13.95;;;8.70;87.80;;;;;;5020852;28;20231;-70
2021/12/14 10:52:19;;;;;;;25.50;12.95;;;8.70;87.90;;;;;;5022760;28;20824;-70
2021/12/14 10:54:51;;;;;;;24.42;13.80;;;8.70;87.90;;;;;;5020037;28;20747;-71
2021/12/14 10:57:22;;;;;;;27.42;13.98;;;8.80;87.90;;;;;;5018431;28;20269;-71
2021/12/14 10:59:54;;;;;;;24.57;13.73;;;8.80;87.80;;;;;;5019041;28;20225;-71
2021/12/14 11:02:25;;;;;;;27.13;14.23;;;8.80;87.80;;;;;;5017400;28;20478;-71
2021/12/14 11:04:58;;;;;;;30.07;14.77;;;8.80;87.80;;;;;;5020666;28;20470;-70
2021/12/14 11:07:35;;;;;;;27.92;14.20;;;8.80;87.70;;;;;;5018507;28;20484;-71
2021/12/14 11:10:10;;;;;;;27.77;14.53;;;8.80;87.80;;;;;;5021253;28;20236;-71
2021/12/14 11:12:42;;;;;;;26.80;14.70;;;8.80;87.90;;;;;;5019227;28;20475;-70
2021/12/14 11:15:14;;;;;;;27.50;15.80;;;8.80;87.90;;;;;;5022338;28;20457;-70
2021/12/14 11:20:32;;;;;;;23.13;13.03;;;8.80;87.90;;;;;;5021525;28;20815;-70
2021/12/14 11:23:06;;;;;;;24.10;13.17;;;8.80;87.90;;;;;;5019661;28;20458;-70
2021/12/14 11:25:51;;;;;;;26.13;14.27;;;8.90;87.90;;;;;;5020021;28;20480;-71
2021/12/14 11:28:23;;;;;;;26.10;15.20;;;8.80;87.70;;;;;;5019266;28;20904;-70
2021/12/14 11:30:54;;;;;;;25.17;12.90;;;8.80;87.60;;;;;;5025819;28;21085;-71
2021/12/14 11:33:26;;;;;;;23.07;14.57;;;8.80;87.60;;;;;;5021996;28;20528;-71
2021/12/14 11:36:03;;;;;;;26.75;15.23;;;8.80;87.70;;;;;;5021330;28;20959;-72
2021/12/14 11:38:38;;;;;;;26.43;14.77;;;8.80;87.70;;;;;;5021302;28;20209;-71
2021/12/14 11:41:25;;;;;;;24.57;13.83;;;8.80;87.70;;;;;;5024853;28;20454;-71
2021/12/14 11:43:56;;;;;;;28.83;15.87;;;8.80;87.70;;;;;;5023202;28;20470;-71
2021/12/14 11:46:25;;;;;;;27.70;15.10;;;8.70;87.80;;;;;;5024333;28;20536;-71
2021/12/14 11:48:57;;;;;;;33.05;15.75;;;8.70;87.80;;;;;;5022206;28;20703;-71
2021/12/14 11:51:26;;;;;;;26.85;16.15;;;8.80;87.90;;;;;;5022556;28;20200;-71
2021/12/14 11:53:59;;;;;;;29.73;17.40;;;8.70;87.80;;;;;;5021211;28;20828;-71
2021/12/14 11:56:31;;;;;;;30.37;18.53;;;8.70;87.90;;;;;;5026710;28;20707;-71
2021/12/14 11:59:01;;;;;;;28.67;16.60;;;8.80;87.90;;;;;;5021773;28;21047;-71
2021/12/14 12:01:32;;;;;;;27.55;15.80;;;8.80;87.90;;;;;;5019839;28;20486;-72
2021/12/14 12:04:04;;;;;;;32.80;16.95;;;8.80;87.90;;;;;;5020854;28;20209;-71
2021/12/14 12:09:28;;;;;;;31.17;16.50;;;8.80;87.70;;;;;;5036005;28;20211;-71
2021/12/14 12:09:37;;;;;;;28.15;16.23;;;8.80;87.90;;;;;;5021348;28;20484;-71
2021/12/14 12:12:17;;;;;;;28.20;16.60;;;8.80;87.90;;;;;;5018867;28;20632;-72
2021/12/14 12:14:49;;;;;;;32.87;16.67;;;8.80;87.90;;;;;;5024058;28;20454;-71
2021/12/14 12:17:27;;;;;;;25.80;16.27;;;8.80;87.90;;;;;;5026252;28;21265;-72
2021/12/14 12:20:05;;;;;;;31.80;17.60;;;8.90;87.90;;;;;;5023069;28;20274;-71
2021/12/14 12:22:37;;;;;;;29.63;15.95;;;8.90;87.70;;;;;;5023525;28;20211;-71
2021/12/14 12:25:10;;;;;;;29.35;17.13;;;8.90;87.70;;;;;;5023819;28;20807;-71
2021/12/14 12:27:42;;;;;;;26.45;17.30;;;8.90;87.70;;;;;;5028158;28;20316;-71
2021/12/14 12:30:31;;;;;;;29.80;17.33;;;8.90;87.70;;;;;;5022847;28;20223;-71
2021/12/14 12:33:10;;;;;;;31.35;17.63;;;8.90;87.60;;;;;;5024588;28;20307;-71
2021/12/14 12:35:42;;;;;;;31.70;18.20;;;8.90;87.70;;;;;;5025301;28;20666;-71
2021/12/14 12:38:23;;;;;;;31.20;18.70;;;8.80;87.60;;;;;;5021249;28;20465;-72
2021/12/14 12:40:56;;;;;;;29.90;18.50;;;8.80;87.60;;;;;;5019799;28;20510;-71
2021/12/14 12:43:30;;;;;;;30.77;19.20;;;8.80;87.70;;;;;;5024762;28;20462;-71
2021/12/14 12:46:03;;;;;;;34.87;20.93;;;8.80;87.70;;;;;;5022841;28;20543;-71
2021/12/14 12:48:59;;;;;;;37.17;21.57;;;8.80;87.70;;;;;;5023558;28;20480;-71
2021/12/14 12:51:48;;;;;;;36.45;20.52;;;8.80;87.90;;;;;;5023038;28;20915;-71
2021/12/14 12:54:24;;;;;;;33.22;20.33;;;8.80;87.90;;;;;;5021188;28;20210;-71
2021/12/14 12:57:13;;;;;;;31.45;20.33;;;8.80;87.90;;;;;;5022548;28;20250;-71
2021/12/14 12:59:47;;;;;;;33.08;19.45;;;8.90;87.90;;;;;;5016829;28;20229;-72
2021/12/14 13:02:20;;;;;;;31.42;20.00;;;8.90;87.90;;;;;;5022827;28;20239;-71
2021/12/14 13:04:52;;;;;;;31.90;19.27;;;8.90;87.90;;;;;;5029373;28;20243;-72
2021/12/14 13:07:31;;;;;;;32.83;20.30;;;8.90;87.70;;;;;;5025306;28;20467;-71
2021/12/14 13:10:00;;;;;;;34.30;20.73;;;8.90;87.70;;;;;;5026329;28;20239;-71
2021/12/14 13:12:43;;;;;;;34.47;20.20;;;8.90;87.70;;;;;;5021555;28;20544;-71
2021/12/14 13:15:34;;;;;;;36.67;22.23;;;8.90;87.90;;;;;;5018581;28;20779;-71
2021/12/14 13:18:34;;;;;;;36.75;21.73;;;8.90;87.70;;;;;;5016029;28;20216;-72
2021/12/14 13:21:09;;;;;;;32.90;20.80;;;8.90;87.70;;;;;;4960765;28;20209;-72
2021/12/14 13:23:50;;;;;;;33.28;20.90;;;8.90;87.70;;;;;;5012033;28;20462;-71
2021/12/14 13:26:21;;;;;;;35.00;20.73;;;8.90;87.70;;;;;;5019973;28;20203;-71
2021/12/14 13:28:51;;;;;;;36.70;21.30;;;8.90;87.60;;;;;;5018353;28;20220;-72
2021/12/14 13:31:25;;;;;;;37.72;20.85;;;8.90;87.60;;;;;;5022562;28;20469;-71
2021/12/14 13:33:54;;;;;;;34.63;21.17;;;8.90;87.70;;;;;;5022940;28;20915;-71
2021/12/14 13:36:22;;;;;;;31.42;19.77;;;8.90;87.60;;;;;;5022076;28;20201;-70
2021/12/14 13:38:51;;;;;;;35.30;22.23;;;8.90;87.70;;;;;;5023198;28;20272;-70
2021/12/14 13:41:31;;;;;;;34.03;20.10;;;8.90;87.60;;;;;;5028069;28;20445;-70